sensor_id;sensor_type;location;lat;lon;timestamp;P1;durP1;ratioP1;P2;durP2;ratioP2
56631;SDS011;42503;39.928;-75.152;2023-04-06T00:02:34;7.93;;;5.85;;
56631;SDS011;42503;39.928;-75.152;2023-04-06T00:12:35;9.95;;;5.53;;
56631;SDS011;42503;39.928;-75.152;2023-04-06T00:22:37;8.05;;;5.65;;
56631;SDS011;42503;39.928;-75.152;2023-04-06T00:32:38;8.70;;;6.20;;
56631;SDS011;42503;39.928;-75.152;2023-04-06T00:42:40;9.40;;;6.00;;
56631;SDS011;42503;39.928;-75.152;2023-04-06T00:52:42;11.13;;;5.97;;
56631;SDS011;42503;39.928;-75.152;2023-04-06T01:02:43;11.25;;;6.22;;
56631;SDS011;42503;39.928;-75.152;2023-04-06T01:12:48;12.25;;;6.32;;
56631;SDS011;42503;39.928;-75.152;2023-04-06T01:22:50;8.10;;;6.32;;
56631;SDS011;42503;39.928;-75.152;2023-04-06T01:32:51;10.38;;;6.90;;
56631;SDS011;42503;39.928;-75.152;2023-04-06T01:42:53;9.15;;;6.70;;
56631;SDS011;42503;39.928;-75.152;2023-04-06T01:52:54;11.52;;;6.90;;
56631;SDS011;42503;39.928;-75.152;2023-04-06T02:02:55;13.60;;;7.45;;
56631;SDS011;42503;39.928;-75.152;2023-04-06T02:12:57;13.27;;;8.30;;
56631;SDS011;42503;39.928;-75.152;2023-04-06T02:23:04;15.85;;;7.22;;
56631;SDS011;42503;39.928;-75.152;2023-04-06T02:33:06;9.87;;;7.17;;
56631;SDS011;42503;39.928;-75.152;2023-04-06T02:43:07;10.93;;;7.50;;
56631;SDS011;42503;39.928;-75.152;2023-04-06T02:53:09;11.70;;;7.18;;
56631;SDS011;42503;39.928;-75.152;2023-04-06T03:03:10;9.60;;;6.82;;
56631;SDS011;42503;39.928;-75.152;2023-04-06T03:13:12;11.32;;;7.32;;
56631;SDS011;42503;39.928;-75.152;2023-04-06T03:23:14;12.63;;;7.55;;
56631;SDS011;42503;39.928;-75.152;2023-04-06T03:33:15;11.05;;;7.30;;
56631;SDS011;42503;39.928;-75.152;2023-04-06T03:43:16;15.52;;;7.68;;
56631;SDS011;42503;39.928;-75.152;2023-04-06T03:53:21;12.77;;;7.68;;
56631;SDS011;42503;39.928;-75.152;2023-04-06T04:03:22;10.82;;;7.65;;
56631;SDS011;42503;39.928;-75.152;2023-04-06T04:13:24;12.93;;;8.18;;
56631;SDS011;42503;39.928;-75.152;2023-04-06T04:23:26;13.85;;;7.65;;
56631;SDS011;42503;39.928;-75.152;2023-04-06T04:33:27;11.93;;;7.50;;
56631;SDS011;42503;39.928;-75.152;2023-04-06T04:43:28;13.10;;;7.95;;
56631;SDS011;42503;39.928;-75.152;2023-04-06T04:53:30;15.30;;;8.70;;
56631;SDS011;42503;39.928;-75.152;2023-04-06T05:03:31;13.02;;;8.05;;
56631;SDS011;42503;39.928;-75.152;2023-04-06T05:13:33;15.73;;;9.70;;
56631;SDS011;42503;39.928;-75.152;2023-04-06T05:23:35;14.00;;;8.77;;
56631;SDS011;42503;39.928;-75.152;2023-04-06T05:33:36;18.98;;;9.52;;
56631;SDS011;42503;39.928;-75.152;2023-04-06T05:43:38;14.07;;;8.55;;
56631;SDS011;42503;39.928;-75.152;2023-04-06T05:53:39;15.40;;;8.30;;
56631;SDS011;42503;39.928;-75.152;2023-04-06T06:03:41;15.13;;;9.77;;
56631;SDS011;42503;39.928;-75.152;2023-04-06T06:13:45;15.93;;;9.07;;
56631;SDS011;42503;39.928;-75.152;2023-04-06T06:23:46;14.35;;;9.25;;
56631;SDS011;42503;39.928;-75.152;2023-04-06T06:33:49;14.75;;;8.98;;
56631;SDS011;42503;39.928;-75.152;2023-04-06T06:44:36;20.25;;;9.02;;
56631;SDS011;42503;39.928;-75.152;2023-04-06T06:54:37;13.68;;;8.65;;
56631;SDS011;42503;39.928;-75.152;2023-04-06T07:04:39;15.80;;;8.50;;
56631;SDS011;42503;39.928;-75.152;2023-04-06T07:14:40;13.65;;;9.15;;
56631;SDS011;42503;39.928;-75.152;2023-04-06T07:24:42;13.23;;;8.27;;
56631;SDS011;42503;39.928;-75.152;2023-04-06T07:34:44;12.32;;;8.10;;
56631;SDS011;42503;39.928;-75.152;2023-04-06T07:44:45;13.65;;;8.25;;
56631;SDS011;42503;39.928;-75.152;2023-04-06T07:54:48;13.13;;;8.50;;
56631;SDS011;42503;39.928;-75.152;2023-04-06T08:04:50;11.82;;;7.82;;
56631;SDS011;42503;39.928;-75.152;2023-04-06T08:14:51;13.10;;;9.20;;
56631;SDS011;42503;39.928;-75.152;2023-04-06T08:24:53;12.82;;;8.25;;
56631;SDS011;42503;39.928;-75.152;2023-04-06T08:34:54;12.18;;;8.10;;
56631;SDS011;42503;39.928;-75.152;2023-04-06T08:44:56;9.70;;;7.43;;
56631;SDS011;42503;39.928;-75.152;2023-04-06T08:54:57;13.98;;;8.93;;
56631;SDS011;42503;39.928;-75.152;2023-04-06T09:04:59;11.80;;;8.43;;
56631;SDS011;42503;39.928;-75.152;2023-04-06T09:15:04;11.85;;;8.98;;
56631;SDS011;42503;39.928;-75.152;2023-04-06T09:25:09;12.10;;;8.65;;
56631;SDS011;42503;39.928;-75.152;2023-04-06T09:35:19;12.50;;;7.82;;
56631;SDS011;42503;39.928;-75.152;2023-04-06T09:45:31;13.43;;;8.30;;
56631;SDS011;42503;39.928;-75.152;2023-04-06T09:55:42;11.65;;;8.38;;
56631;SDS011;42503;39.928;-75.152;2023-04-06T10:05:50;14.85;;;9.02;;
56631;SDS011;42503;39.928;-75.152;2023-04-06T10:15:56;12.40;;;8.48;;
56631;SDS011;42503;39.928;-75.152;2023-04-06T10:26:03;11.68;;;7.63;;
56631;SDS011;42503;39.928;-75.152;2023-04-06T10:36:14;12.70;;;8.32;;
56631;SDS011;42503;39.928;-75.152;2023-04-06T10:46:32;14.20;;;8.40;;
56631;SDS011;42503;39.928;-75.152;2023-04-06T10:56:36;22.33;;;8.90;;
56631;SDS011;42503;39.928;-75.152;2023-04-06T11:06:39;37.15;;;9.68;;
56631;SDS011;42503;39.928;-75.152;2023-04-06T11:16:41;16.90;;;8.57;;
56631;SDS011;42503;39.928;-75.152;2023-04-06T11:26:46;17.05;;;8.90;;
56631;SDS011;42503;39.928;-75.152;2023-04-06T11:36:55;14.77;;;8.35;;
56631;SDS011;42503;39.928;-75.152;2023-04-06T11:46:58;13.90;;;8.35;;
56631;SDS011;42503;39.928;-75.152;2023-04-06T11:57:01;12.05;;;8.05;;
56631;SDS011;42503;39.928;-75.152;2023-04-06T12:07:04;11.52;;;7.63;;
56631;SDS011;42503;39.928;-75.152;2023-04-06T12:17:05;14.90;;;8.85;;
56631;SDS011;42503;39.928;-75.152;2023-04-06T12:27:06;12.48;;;7.82;;
56631;SDS011;42503;39.928;-75.152;2023-04-06T12:37:09;11.57;;;7.88;;
56631;SDS011;42503;39.928;-75.152;2023-04-06T12:47:10;19.35;;;11.68;;
56631;SDS011;42503;39.928;-75.152;2023-04-06T12:57:14;19.08;;;10.13;;
56631;SDS011;42503;39.928;-75.152;2023-04-06T13:07:18;20.77;;;9.73;;
56631;SDS011;42503;39.928;-75.152;2023-04-06T13:17:23;19.35;;;10.65;;
56631;SDS011;42503;39.928;-75.152;2023-04-06T13:27:27;15.88;;;10.32;;
56631;SDS011;42503;39.928;-75.152;2023-04-06T13:37:28;19.95;;;8.90;;
56631;SDS011;42503;39.928;-75.152;2023-04-06T13:47:29;16.20;;;10.05;;
56631;SDS011;42503;39.928;-75.152;2023-04-06T13:57:32;13.93;;;8.77;;
56631;SDS011;42503;39.928;-75.152;2023-04-06T14:07:33;19.20;;;11.10;;
56631;SDS011;42503;39.928;-75.152;2023-04-06T14:17:34;15.23;;;11.23;;
56631;SDS011;42503;39.928;-75.152;2023-04-06T14:27:39;16.08;;;10.60;;
56631;SDS011;42503;39.928;-75.152;2023-04-06T14:37:40;14.43;;;9.88;;
56631;SDS011;42503;39.928;-75.152;2023-04-06T14:47:41;14.30;;;10.05;;
56631;SDS011;42503;39.928;-75.152;2023-04-06T14:57:43;16.20;;;10.82;;
56631;SDS011;42503;39.928;-75.152;2023-04-06T15:07:44;17.05;;;11.00;;
56631;SDS011;42503;39.928;-75.152;2023-04-06T15:17:46;13.70;;;10.45;;
56631;SDS011;42503;39.928;-75.152;2023-04-06T15:27:47;14.18;;;10.98;;
56631;SDS011;42503;39.928;-75.152;2023-04-06T15:37:49;17.17;;;12.50;;
56631;SDS011;42503;39.928;-75.152;2023-04-06T15:47:50;16.05;;;11.40;;
56631;SDS011;42503;39.928;-75.152;2023-04-06T15:57:54;16.77;;;12.05;;
56631;SDS011;42503;39.928;-75.152;2023-04-06T16:07:55;14.13;;;11.20;;
56631;SDS011;42503;39.928;-75.152;2023-04-06T16:17:57;15.80;;;11.45;;
56631;SDS011;42503;39.928;-75.152;2023-04-06T16:28:04;15.20;;;11.13;;
56631;SDS011;42503;39.928;-75.152;2023-04-06T16:38:06;14.90;;;11.48;;
56631;SDS011;42503;39.928;-75.152;2023-04-06T16:48:08;17.90;;;11.20;;
56631;SDS011;42503;39.928;-75.152;2023-04-06T16:58:09;14.32;;;10.75;;
56631;SDS011;42503;39.928;-75.152;2023-04-06T17:08:10;16.25;;;10.98;;
56631;SDS011;42503;39.928;-75.152;2023-04-06T17:18:12;14.02;;;10.77;;
56631;SDS011;42503;39.928;-75.152;2023-04-06T17:28:13;15.38;;;11.00;;
56631;SDS011;42503;39.928;-75.152;2023-04-06T17:38:15;13.98;;;11.38;;
56631;SDS011;42503;39.928;-75.152;2023-04-06T17:48:16;14.00;;;10.38;;
56631;SDS011;42503;39.928;-75.152;2023-04-06T17:58:18;13.40;;;10.57;;
56631;SDS011;42503;39.928;-75.152;2023-04-06T18:08:19;13.10;;;10.27;;
56631;SDS011;42503;39.928;-75.152;2023-04-06T18:18:22;11.93;;;9.70;;
56631;SDS011;42503;39.928;-75.152;2023-04-06T18:28:23;12.27;;;9.30;;
56631;SDS011;42503;39.928;-75.152;2023-04-06T18:38:25;14.82;;;9.32;;
56631;SDS011;42503;39.928;-75.152;2023-04-06T18:48:32;12.57;;;8.20;;
56631;SDS011;42503;39.928;-75.152;2023-04-06T18:58:38;10.57;;;8.82;;
56631;SDS011;42503;39.928;-75.152;2023-04-06T19:08:42;9.35;;;8.43;;
56631;SDS011;42503;39.928;-75.152;2023-04-06T19:18:43;10.25;;;8.65;;
56631;SDS011;42503;39.928;-75.152;2023-04-06T19:28:45;11.57;;;8.45;;
56631;SDS011;42503;39.928;-75.152;2023-04-06T19:38:47;9.27;;;7.20;;
56631;SDS011;42503;39.928;-75.152;2023-04-06T19:48:48;8.75;;;7.85;;
56631;SDS011;42503;39.928;-75.152;2023-04-06T19:58:50;10.48;;;8.30;;
56631;SDS011;42503;39.928;-75.152;2023-04-06T20:08:54;7.88;;;7.10;;
56631;SDS011;42503;39.928;-75.152;2023-04-06T20:18:56;8.90;;;6.72;;
56631;SDS011;42503;39.928;-75.152;2023-04-06T20:28:57;8.25;;;6.78;;
56631;SDS011;42503;39.928;-75.152;2023-04-06T20:39:01;8.13;;;6.53;;
56631;SDS011;42503;39.928;-75.152;2023-04-06T20:49:23;8.30;;;6.45;;
56631;SDS011;42503;39.928;-75.152;2023-04-06T20:59:27;7.50;;;6.10;;
56631;SDS011;42503;39.928;-75.152;2023-04-06T21:09:29;6.15;;;5.57;;
56631;SDS011;42503;39.928;-75.152;2023-04-06T21:19:31;7.20;;;5.60;;
56631;SDS011;42503;39.928;-75.152;2023-04-06T21:29:32;6.05;;;5.45;;
56631;SDS011;42503;39.928;-75.152;2023-04-06T21:39:36;6.30;;;5.50;;
56631;SDS011;42503;39.928;-75.152;2023-04-06T21:49:38;6.10;;;5.25;;
56631;SDS011;42503;39.928;-75.152;2023-04-06T21:59:39;9.15;;;6.05;;
56631;SDS011;42503;39.928;-75.152;2023-04-06T22:09:41;8.02;;;6.53;;
56631;SDS011;42503;39.928;-75.152;2023-04-06T22:19:49;7.03;;;6.03;;
56631;SDS011;42503;39.928;-75.152;2023-04-06T22:29:50;7.47;;;5.65;;
56631;SDS011;42503;39.928;-75.152;2023-04-06T22:39:51;6.00;;;5.38;;
56631;SDS011;42503;39.928;-75.152;2023-04-06T22:49:52;7.30;;;5.38;;
56631;SDS011;42503;39.928;-75.152;2023-04-06T22:59:54;5.50;;;4.82;;
56631;SDS011;42503;39.928;-75.152;2023-04-06T23:09:55;6.50;;;5.10;;
56631;SDS011;42503;39.928;-75.152;2023-04-06T23:19:57;5.60;;;5.10;;
56631;SDS011;42503;39.928;-75.152;2023-04-06T23:29:58;5.90;;;5.07;;
56631;SDS011;42503;39.928;-75.152;2023-04-06T23:39:59;5.03;;;4.53;;
56631;SDS011;42503;39.928;-75.152;2023-04-06T23:50:01;4.53;;;4.03;;
